Main page
METAR-TAF:

METAR-TAF

Airports :

Southampton, England

Southampton Airport

latitude: 50-54N, longitude: 001-24W, elevation: 9 m

Current weather observation

The report was made 5 hours and 58 minutes ago, at 20:50 UTC
Wind 4 kt from the East, varying between East/Northeast and South/Southeast
Temperature 14°C
Humidity 88%
Pressure 1014 hPa
Visibility 10 km or more
Few clouds at a height of 4000 ft

METAR: EGHI 212050Z 10004KT 070V150 9999 FEW040 14/12 Q1014

Time: 03:48 (02:48 UTC)

Forecast

The report was made 7 hours and 47 minutes ago, at 19:01 UTC
Forecast valid from 21 at 19 UTC to 21 at 22 UTC
Wind 8 kt from the Southeast
Visibility 10 km or more
no clouds below 1500 m and no cumulonimbus
Temporary
from 21 at 19 UTC to 21 at 22 UTC
Wind 18 kt from the South with gusts up to 33 kt
Visibility: 4000 m
Broken clouds at a height of 3500 ft, Cumulonimbus.
heavy rain showers, thunderstorm, hail

TAF: EGHI 211901Z 2119/2122 13008KT CAVOK TEMPO 2119/2122 17018G33KT 4000 +SHRA TSGR BKN035CB

Weather observations and forecasts of more than 4000 airports (METAR and TAF reports).

The available stations are represented by yellow and red dots on the map.

Hover mouse over dot to see the name of the station.

Then click to see weather observations and forecasts.

To change the map : click on the green buttons with a black cross to zoom in, on the green button with a dash to zoom out, or on the green arrows for adjacent maps.


METAR-TAF: